Latest Weather Observations for Hughenden

IDQ60801

Issued at 9:52 am EST Tuesday 7 December 2021 (issued every 10 minutes, with the page automatically refreshed every 10 minutes)

About weather observations | Map of weather stations | Latest weather observations for QLD | Other Formats
Station Details ID: 030022 Name: HUGHENDEN AIRPORT Lat: -20.82 Lon: 144.23 Height: 316.4 m
Data from the previous 72 hours. | See also: Recent months at Hughenden
Date/Time
EST
Temp
°C
App
Temp
°C
Dew
Point
°C
Rel
Hum
%
Delta-T
°C
Wind Press
QNH
hPa
Press
MSL
hPa
Rain since
9am
mm
Dir  Spd
km/h
Gust
km/h
Spd
kts
Gust
kts
07/09:30am 30.7 29.7 19.7 52 7.3 NE 24 32 13 17 1012.4 1010.0 0.0
07/09:00am 30.2 28.6 19.3 52 7.2 ENE 26 32 14 17 1012.5 1010.1 0.0
07/08:30am 28.8 27.1 18.9 55 6.5 NE 26 33 14 18 1012.5 1010.1 0.0
07/08:00am 28.1 27.2 19.1 58 5.9 NE 22 32 12 17 1012.5 1010.1 0.0
07/07:30am 27.3 27.1 19.4 62 5.2 NE 19 28 10 15 1012.5 1010.1 0.0
07/07:00am 26.6 26.1 20.0 67 4.4 NE 22 28 12 15 1012.1 1009.7 0.0
07/06:30am 25.9 25.9 19.8 69 4.0 NE 19 28 10 15 1011.8 1009.4 0.0
07/06:00am 25.3 26.4 19.7 71 3.7 ENE 13 20 7 11 1011.3 1008.8 0.0
07/05:30am 25.3 26.3 19.4 70 3.8 NE 13 19 7 10 1011.0 1008.5 0.0
07/05:00am 25.7 26.2 19.3 67 4.2 NE 15 22 8 12 1010.9 1008.4 0.0
07/04:30am 25.6 26.0 19.0 67 4.3 ENE 15 19 8 10 1010.5 1008.0 0.0
07/04:00am 26.0 26.6 18.7 64 4.7 ENE 13 15 7 8 1010.3 1007.8 0.0
07/03:30am 25.9 27.3 18.6 64 4.7 ENE 9 13 5 7 1010.1 1007.6 0.0
07/03:00am 24.8 25.7 18.5 68 4.0 E 11 13 6 7 1010.1 1007.6 0.0
07/02:30am 25.4 26.8 18.6 66 4.4 E 9 11 5 6 1010.2 1007.7 0.0
07/02:00am 26.0 26.9 18.4 63 4.9 E 11 13 6 7 1010.3 1007.8 0.0
07/01:30am 27.1 27.9 18.1 58 5.8 ESE 11 15 6 8 1010.4 1007.9 0.0
07/01:00am 27.9 27.9 18.0 55 6.4 E 15 22 8 12 1010.4 1007.9 0.0
07/12:30am 28.0 28.4 18.1 55 6.4 E 13 19 7 10 1010.3 1007.8 0.0
07/12:00am 27.2 27.6 18.2 58 5.8 E 13 17 7 9 1010.5 1008.0 0.0
 
Date/Time
EST
Temp
°C
App
Temp
°C
Dew
Point
°C
Rel
Hum
%
Delta-T
°C
Wind Press
QNH
hPa
Press
MSL
hPa
Rain since
9am
mm
Dir  Spd
km/h
Gust
km/h
Spd
kts
Gust
kts
06/11:30pm 26.9 27.7 18.2 59 5.6 ESE 11 15 6 8 1010.9 1008.4 0.0
06/11:00pm 26.8 27.6 18.1 59 5.6 ESE 11 13 6 7 1011.2 1008.7 0.0
06/10:30pm 26.7 27.8 18.0 59 5.6 ESE 9 11 5 6 1011.0 1008.5 0.0
06/10:00pm 26.8 28.5 18.4 60 5.4 ESE 7 9 4 5 1010.6 1008.1 0.0
06/09:30pm 27.0 28.2 18.3 59 5.6 E 9 9 5 5 1010.2 1007.7 0.0
06/09:00pm 28.1 29.7 17.9 54 6.6 ESE 6 7 3 4 1010.1 1007.6 0.0
06/08:30pm 28.7 29.5 17.2 49 7.3 E 9 13 5 7 1009.6 1007.2 0.0
06/08:00pm 29.1 29.2 16.6 46 7.9 E 11 15 6 8 1009.4 1007.0 0.0
06/07:30pm 29.3 29.4 16.5 46 8.1 E 11 13 6 7 1009.2 1006.8 0.0
06/07:00pm 30.1 29.7 16.1 42 8.8 ENE 13 17 7 9 1009.1 1006.7 0.0
06/06:30pm 30.5 30.2 16.5 43 8.9 E 13 17 7 9 1008.9 1006.5 0.0
06/06:00pm 31.1 31.1 16.3 41 9.4 E 11 15 6 8 1008.9 1006.5 0.0
06/05:30pm 31.4 31.2 16.6 41 9.4 E 13 19 7 10 1008.8 1006.4 0.0
06/05:00pm 31.2 30.4 17.1 42 9.1 E 17 20 9 11 1008.8 1006.4 0.0
06/04:30pm 30.9 31.1 17.6 45 8.6 E 13 19 7 10 1008.9 1006.5 0.0
06/04:00pm 30.8 31.6 18.2 47 8.2 SE 11 17 6 9 1008.8 1006.4 0.0
06/03:30pm 30.3 31.4 18.1 48 7.9 SSE 9 13 5 7 1009.1 1006.7 0.0
06/03:00pm 30.0 30.8 18.1 49 7.7 SSW 11 15 6 8 1009.5 1007.1 0.0
06/02:30pm 29.5 30.6 18.0 50 7.4 S 9 13 5 7 1009.8 1007.4 0.0
06/02:00pm 29.1 30.5 17.9 50 7.2 S 7 13 4 7 1010.4 1007.9 0.0
06/01:30pm 29.1 30.2 17.9 50 7.2 S 9 15 5 8 1011.0 1008.5 0.0
06/01:00pm 28.9 30.4 17.7 50 7.2 SSW 6 11 3 6 1011.4 1008.9 0.0
06/12:30pm 28.6 29.4 18.1 53 6.8 SSW 11 15 6 8 1011.8 1009.4 0.0
06/12:00pm 28.3 28.8 18.4 55 6.4 SSE 13 17 7 9 1012.1 1009.7 0.0
06/11:30am 27.7 27.6 18.7 58 5.8 S 17 20 9 11 1012.5 1010.1 0.0
06/11:00am 27.9 28.3 18.9 58 5.9 SSE 15 19 8 10 1012.7 1010.3 0.0
06/10:30am 27.7 28.5 18.1 56 6.2 S 11 15 6 8 1012.7 1010.3 0.0
06/10:00am 27.5 28.4 18.5 58 5.8 SSE 11 15 6 8 1012.8 1010.4 0.0
06/09:30am 27.2 26.6 18.5 59 5.6 S 19 24 10 13 1013.1 1010.7 0.0
06/09:00am 26.6 25.8 18.5 61 5.2 SSW 20 30 11 16 1013.2 1010.8 0.0
06/08:30am 27.8 29.1 17.0 51 6.8 WNW 6 11 3 6 1012.8 1010.4 0.0
06/08:00am 27.8 29.1 17.0 51 6.8 NNE 6 13 3 7 1012.5 1010.1 0.0
06/07:30am 27.7 27.7 17.3 53 6.6 NE 13 19 7 10 1012.0 1009.6 0.0
06/07:00am 26.4 26.6 17.7 58 5.5 E 13 19 7 10 1011.4 1008.9 0.0
06/06:30am 24.0 25.7 18.6 72 3.5 SSE 7 9 4 5 1011.5 1009.0 0.0
06/06:00am 23.4 25.7 18.5 74 3.1 SE 4 9 2 5 1011.2 1008.7 0.0
06/05:30am 23.4 24.5 18.1 72 3.4 SE 9 13 5 7 1010.6 1008.1 0.0
06/05:00am 23.5 24.9 17.9 71 3.5 SE 7 11 4 6 1010.3 1007.8 0.0
06/04:30am 23.7 24.4 17.9 70 3.7 SSE 11 13 6 7 1009.6 1007.2 0.0
06/04:00am 24.7 24.5 17.7 65 4.4 SSE 15 20 8 11 1009.4 1007.0 0.0
06/03:30am 26.1 26.4 18.0 61 5.2 SSE 13 19 7 10 1009.1 1006.7 0.0
06/03:00am 27.4 27.7 17.8 55 6.2 ENE 13 19 7 10 1008.5 1006.0 0.0
06/02:30am 27.7 27.2 17.8 54 6.3 NE 17 22 9 12 1008.2 1005.7 0.0
06/02:00am 28.3 27.5 17.2 51 7.1 ENE 17 22 9 12 1008.6 1006.1 0.0
06/01:30am 28.2 28.2 17.1 51 7.0 ENE 13 19 7 10 1008.4 1005.9 0.0
06/01:00am 28.0 27.6 17.2 51 6.9 E 15 20 8 11 1008.6 1006.1 0.0
06/12:30am 28.3 27.0 16.9 50 7.2 ESE 19 28 10 15 1008.8 1006.4 0.0
06/12:00am 28.6 27.6 16.5 48 7.6 ESE 17 20 9 11 1008.6 1006.1 0.0
 
Date/Time
EST
Temp
°C
App
Temp
°C
Dew
Point
°C
Rel
Hum
%
Delta-T
°C
Wind Press
QNH
hPa
Press
MSL
hPa
Rain since
9am
mm
Dir  Spd
km/h
Gust
km/h
Spd
kts
Gust
kts
05/11:30pm 29.6 28.5 16.4 45 8.3 ESE 17 28 9 15 1009.0 1006.6 0.0
05/11:00pm 29.3 29.2 16.1 44 8.3 NE 11 15 6 8 1009.1 1006.7 0.0
05/10:30pm 29.4 29.0 16.2 44 8.3 ESE 13 17 7 9 1008.8 1006.4 0.0
05/10:00pm 29.6 29.2 16.1 44 8.5 ESE 13 17 7 9 1008.6 1006.1 0.0
05/09:30pm 30.1 29.7 16.1 42 8.8 ESE 13 15 7 8 1008.5 1006.0 0.0
05/09:00pm 30.2 30.1 15.9 42 9.0 ESE 11 13 6 7 1008.0 1005.5 0.0
05/08:30pm 31.1 30.3 15.1 38 10.0 ESE 13 15 7 8 1007.8 1005.3 0.0
05/08:00pm 32.6 30.7 14.2 32 11.4 E 17 20 9 11 1007.3 1004.8 0.0
05/07:30pm 33.0 31.3 14.6 33 11.4 E 17 22 9 12 1007.1 1004.6 0.0
05/07:00pm 34.2 32.1 13.6 28 12.7 ENE 17 22 9 12 1006.9 1004.4 0.0
05/06:30pm 35.1 32.9 13.3 27 13.4 ENE 17 22 9 12 1006.6 1004.2 0.0
05/06:00pm 35.9 33.2 13.4 26 13.9 E 20 35 11 19 1006.2 1003.8 0.0
05/05:30pm 36.0 33.3 14.6 27 13.5 ESE 22 32 12 17 1006.1 1003.7 0.0
05/05:00pm 36.7 33.6 13.5 25 14.4 E 22 32 12 17 1006.0 1003.6 0.0
05/04:30pm 37.2 34.3 13.9 25 14.6 E 22 33 12 18 1006.2 1003.8 0.0
05/04:00pm 36.8 35.1 14.7 26 14.0 ESE 17 26 9 14 1006.3 1003.9 0.0
05/03:30pm 37.7 35.1 14.9 26 14.5 ESE 22 30 12 16 1006.5 1004.1 0.0
05/03:00pm 37.3 34.8 15.2 27 14.1 ESE 22 33 12 18 1006.9 1004.4 0.0
05/02:30pm 37.0 33.7 14.9 27 14.0 E 26 35 14 19 1007.3 1004.8 0.0
05/02:00pm 36.6 34.3 14.6 27 13.9 ENE 20 32 11 17 1007.7 1005.2 0.0
05/01:30pm 36.9 34.2 13.6 24 14.5 ESE 20 35 11 19 1008.2 1005.7 0.0
05/01:00pm 36.8 34.7 14.7 26 14.0 E 19 26 10 14 1008.5 1006.0 0.0
05/12:30pm 36.0 32.9 14.6 27 13.5 E 24 35 13 19 1009.0 1006.6 0.0
05/12:00pm 35.6 34.5 15.3 29 12.9 E 15 24 8 13 1009.2 1006.8 0.0
05/11:30am 35.3 32.4 15.1 30 12.8 ESE 24 33 13 18 1009.6 1007.2 0.0
05/11:00am 35.3 33.5 15.6 31 12.5 E 19 30 10 16 1010.2 1007.7 0.0
05/10:30am 33.9 33.9 17.2 37 10.8 SE 13 19 7 10 1010.6 1008.1 0.0
05/10:00am 33.0 33.0 17.2 39 10.2 E 13 22 7 12 1010.9 1008.4 0.0
05/09:30am 32.5 32.9 17.2 40 9.9 NE 11 17 6 9 1011.2 1008.7 0.0
05/09:00am 31.4 31.3 16.9 41 9.3 NE 13 19 7 10 1011.4 1008.9 0.0
05/08:30am 30.3 30.5 17.7 46 8.1 NE 13 17 7 9 1011.5 1009.0 0.0
05/08:00am 29.0 29.1 18.4 52 6.9 NNE 15 19 8 10 1011.2 1008.7 0.0
05/07:30am 27.9 28.6 18.9 58 5.9 NE 13 17 7 9 1011.1 1008.6 0.0
05/07:00am 26.8 27.2 18.1 59 5.6 ENE 13 17 7 9 1010.9 1008.4 0.0
05/06:30am 25.7 26.5 18.1 63 4.9 NE 11 17 6 9 1010.4 1007.9 0.0
05/06:00am 24.7 25.4 17.9 66 4.3 NE 11 15 6 8 1009.9 1007.5 0.0
05/05:30am 24.2 25.6 17.7 67 4.1 ENE 7 9 4 5 1009.7 1007.3 0.0
05/05:00am 23.8 26.4 17.5 68 4.0 CALM 0 0 0 0 1009.3 1006.9 0.0
05/04:30am 24.5 25.4 17.5 65 4.4 NE 9 11 5 6 1009.1 1006.7 0.0
05/04:00am 25.0 25.7 17.0 61 5.0 ENE 9 13 5 7 1009.2 1006.8 0.0
05/03:30am 24.1 25.4 17.6 67 4.1 ENE 7 9 4 5 1009.0 1006.6 0.0
05/03:00am 25.1 26.1 16.8 60 5.2 NE 7 9 4 5 1009.1 1006.7 0.0
05/02:30am 25.6 25.2 16.2 56 5.8 E 13 15 7 8 1009.3 1006.9 0.0
05/02:00am 25.0 25.2 16.7 60 5.2 SE 11 15 6 8 1009.4 1007.0 0.0
05/01:30am 25.6 27.3 16.2 56 5.8 ENE 2 6 1 3 1009.1 1006.7 0.0
05/01:00am 26.4 28.2 15.4 50 6.8 CALM 0 7 0 4 1009.5 1007.1 0.0
05/12:30am 26.4 27.6 15.8 52 6.6 E 4 9 2 5 1009.5 1007.1 0.0
05/12:00am 26.9 26.8 15.0 48 7.3 E 9 9 5 5 1009.8 1007.4 0.0
 
Date/Time
EST
Temp
°C
App
Temp
°C
Dew
Point
°C
Rel
Hum
%
Delta-T
°C
Wind Press
QNH
hPa
Press
MSL
hPa
Rain since
9am
mm
Dir  Spd
km/h
Gust
km/h
Spd
kts
Gust
kts
04/11:30pm 27.6 27.3 14.3 44 8.1 E 9 11 5 6 1010.4 1007.9 0.0
04/11:00pm 28.7 27.4 13.8 40 9.0 E 13 17 7 9 1010.5 1008.0 0.0
04/10:30pm 29.4 27.6 13.2 37 9.7 E 15 19 8 10 1010.5 1008.0 0.0
04/10:00pm 28.7 27.3 13.4 39 9.2 E 13 17 7 9 1010.5 1008.0 0.0
04/09:30pm 28.5 26.5 12.8 38 9.3 ESE 15 17 8 9 1010.4 1007.9 0.0
04/09:00pm 28.8 26.9 13.1 38 9.4 ESE 15 17 8 9 1010.1 1007.6 0.0
04/08:30pm 29.3 27.8 13.1 37 9.7 ESE 13 15 7 8 1009.7 1007.3 0.0
04/08:00pm 29.8 28.3 13.1 36 10.1 ESE 13 13 7 7 1009.6 1007.2 0.0
04/07:30pm 31.6 29.9 12.4 31 11.5 ESE 13 17 7 9 1009.3 1006.9 0.0
04/07:00pm 32.6 30.1 12.3 29 12.2 ESE 17 24 9 13 1009.0 1006.6 0.0
04/06:30pm 34.0 31.0 11.8 26 13.3 ESE 19 24 10 13 1008.6 1006.1 0.0
04/06:00pm 34.9 31.7 13.1 27 13.4 ESE 22 33 12 18 1008.4 1005.9 0.0
04/05:30pm 35.6 31.4 12.5 24 14.1 ESE 26 39 14 21 1008.3 1005.8 0.0
04/05:00pm 35.9 32.2 12.8 25 14.2 ESE 24 35 13 19 1008.1 1005.6 0.0
04/04:30pm 36.1 31.5 12.3 24 14.5 ESE 28 39 15 21 1008.0 1005.5 0.0
04/04:00pm 36.0 31.9 11.6 23 14.7 ESE 24 35 13 19 1008.1 1005.6 0.0
04/03:30pm 36.7 32.1 12.2 23 14.9 ESE 28 41 15 22 1008.3 1005.8 0.0
04/03:00pm 36.2 30.9 12.4 24 14.5 E 32 41 17 22 1008.7 1006.3 0.0
04/02:30pm 36.4 32.7 12.6 24 14.6 ESE 24 43 13 23 1009.0 1006.6 0.0
04/02:13pm 35.9 31.3 12.2 24 14.4 ESE 28 46 15 25 1009.3 1006.9 0.0
04/02:00pm 36.1 31.9 12.3 24 14.5 ESE 26 39 14 21 1009.6 1007.2 0.0
04/01:30pm 35.8 31.7 12.7 25 14.1 ESE 26 37 14 20 1010.4 1007.9 0.0
04/01:00pm 35.6 31.7 14.3 28 13.3 ESE 28 37 15 20 1010.8 1008.3 0.0
04/12:30pm 35.3 31.5 13.5 27 13.5 ESE 26 41 14 22 1011.5 1009.0 0.0
04/12:00pm 35.2 32.5 14.5 29 13.0 ESE 22 35 12 19 1011.9 1009.5 0.0
04/11:30am 34.3 31.4 15.2 31 12.0 ESE 24 37 13 20 1012.5 1010.1 0.0
04/11:00am 33.7 31.5 17.0 37 10.8 E 24 35 13 19 1013.0 1010.6 0.0
04/10:30am 34.2 31.8 17.4 36 10.9 ESE 26 41 14 22 1013.2 1010.8 0.0
04/10:00am 33.1 31.9 18.5 42 9.6 E 22 35 12 19 1013.1 1010.7 0.0

Other formats

Comma delimited format used in spreadsheet applications
http://www.bom.gov.au/fwo/IDQ60801/IDQ60801.94343.axf

JavaScript Object Notation format (JSON) in row-major order
http://www.bom.gov.au/fwo/IDQ60801/IDQ60801.94343.json

Data quality

Most of these data are generated automatically and are frequently updated. Quality checks on data are not normally performed. It is possible for incorrect values to appear. Refer to information at About Latest Weather Observations and please check the disclaimer before using these data.